Time;durP1;ratioP1;P1;durP2;ratioP2;P2;SDS_P1;SDS_P2;PMS_P1;PMS_P2;Temp;Humidity;BMP_temperature;BMP_pressure;BME280_temperature;BME280_humidity;BME280_pressure;Samples;Min_cycle;Max_cycle;Signal;HPM_P1;HPM_P2
2022/10/27 00:00:41;;;;;;;11.18;4.15;;;12.10;99.90;;;;;;4979954;28;20027;-82
2022/10/27 00:03:09;;;;;;;6.82;2.72;;;12.10;99.90;;;;;;4993296;28;20033;-81
2022/10/27 00:05:35;;;;;;;7.10;2.65;;;12.10;99.90;;;;;;4984308;28;20035;-81
2022/10/27 00:08:01;;;;;;;7.43;2.83;;;12.10;99.90;;;;;;4980026;28;20034;-80
2022/10/27 00:10:26;;;;;;;6.63;3.03;;;12.10;99.90;;;;;;4980212;28;20027;-82
2022/10/27 00:12:52;;;;;;;5.75;2.97;;;12.10;99.90;;;;;;4980604;28;20042;-82
2022/10/27 00:15:18;;;;;;;13.48;4.10;;;12.20;99.90;;;;;;4982483;28;20119;-82
2022/10/27 00:17:43;;;;;;;7.68;2.90;;;12.20;99.90;;;;;;4966572;28;20038;-81
2022/10/27 00:20:09;;;;;;;6.13;2.70;;;12.10;99.90;;;;;;4978439;28;20022;-82
2022/10/27 00:22:35;;;;;;;5.35;2.45;;;12.10;99.90;;;;;;4981046;28;20022;-82
2022/10/27 00:25:01;;;;;;;6.28;2.35;;;12.10;99.90;;;;;;4981841;28;20030;-81
2022/10/27 00:27:27;;;;;;;3.58;2.33;;;12.10;99.90;;;;;;4983922;28;20019;-82
2022/10/27 00:29:53;;;;;;;3.58;2.20;;;12.10;99.90;;;;;;4992400;28;20045;-80
2022/10/27 00:32:19;;;;;;;6.20;3.03;;;12.00;99.90;;;;;;4968818;28;20058;-82
2022/10/27 00:34:45;;;;;;;6.53;2.55;;;12.00;99.90;;;;;;4983762;28;20031;-81
2022/10/27 00:37:10;;;;;;;4.78;2.70;;;12.00;99.90;;;;;;4983710;28;20447;-82
2022/10/27 00:39:36;;;;;;;2.95;2.30;;;12.00;99.90;;;;;;4986143;28;20030;-81
2022/10/27 00:42:02;;;;;;;3.85;2.28;;;11.90;99.90;;;;;;4972145;28;20102;-80
2022/10/27 00:44:41;;;;;;;3.97;2.60;;;11.90;99.90;;;;;;4984317;28;20031;-81
2022/10/27 00:47:14;;;;;;;4.47;2.40;;;11.80;99.90;;;;;;4984522;28;20454;-82
2022/10/27 00:50:13;;;;;;;3.17;2.22;;;11.80;99.90;;;;;;4983989;28;20022;-81
2022/10/27 00:52:55;;;;;;;3.75;2.30;;;11.80;99.90;;;;;;4978584;28;20397;-82
2022/10/27 00:55:32;;;;;;;4.53;2.70;;;11.80;99.90;;;;;;4985484;28;20120;-81
2022/10/27 00:58:01;;;;;;;4.53;2.65;;;11.80;99.90;;;;;;4977683;28;20167;-80
2022/10/27 01:00:27;;;;;;;5.75;2.33;;;11.80;99.90;;;;;;4996037;28;20014;-80
2022/10/27 01:02:53;;;;;;;4.40;2.58;;;11.80;99.90;;;;;;4997006;28;20034;-79
2022/10/27 01:05:24;;;;;;;3.20;2.30;;;11.80;99.90;;;;;;4980724;28;20042;-81
2022/10/27 01:07:54;;;;;;;4.20;2.10;;;11.70;99.90;;;;;;4990026;28;20030;-81
2022/10/27 01:10:21;;;;;;;4.13;2.10;;;11.70;99.90;;;;;;4985464;28;20094;-83
2022/10/27 01:12:47;;;;;;;5.38;2.45;;;11.70;99.90;;;;;;4983650;28;20023;-81
2022/10/27 01:15:14;;;;;;;2.35;2.13;;;11.60;99.90;;;;;;4963132;29;20027;-80
2022/10/27 01:18:07;;;;;;;3.78;2.22;;;11.70;99.90;;;;;;4973189;28;20069;-80
2022/10/27 01:20:50;;;;;;;5.88;2.45;;;11.70;99.90;;;;;;4981582;28;20081;-79
2022/10/27 01:23:28;;;;;;;4.03;2.55;;;11.60;99.90;;;;;;4972708;28;20070;-81
2022/10/27 01:26:20;;;;;;;3.70;2.25;;;11.60;99.90;;;;;;4988581;28;20031;-81
2022/10/27 01:28:55;;;;;;;;;;;11.60;99.90;;;;;;4989960;28;20034;-82
2022/10/27 01:31:34;;;;;;;6.00;2.53;;;11.50;99.90;;;;;;4970415;28;19917;-82
2022/10/27 01:34:18;;;;;;;5.13;2.25;;;11.50;99.90;;;;;;4986054;28;20027;-82
2022/10/27 01:37:26;;;;;;;3.35;2.08;;;11.50;99.90;;;;;;4966062;28;20326;-82
2022/10/27 01:40:07;;;;;;;4.50;2.55;;;11.40;99.90;;;;;;4947193;28;20038;-81
2022/10/27 01:42:55;;;;;;;3.47;2.40;;;11.40;99.90;;;;;;4965235;28;20027;-81
2022/10/27 01:45:35;;;;;;;5.88;2.85;;;11.40;99.90;;;;;;4965998;28;20481;-80
2022/10/27 01:48:03;;;;;;;4.25;2.72;;;11.40;99.90;;;;;;4982022;28;20041;-82
2022/10/27 01:50:34;;;;;;;4.47;2.45;;;11.30;99.90;;;;;;4983755;28;20038;-82
2022/10/27 01:53:00;;;;;;;5.93;3.00;;;11.30;99.90;;;;;;4983570;28;20055;-82
2022/10/27 01:55:25;;;;;;;3.97;2.30;;;11.30;99.90;;;;;;4962142;29;20039;-80
2022/10/27 01:58:00;;;;;;;7.07;2.78;;;11.30;99.90;;;;;;4976286;28;20058;-81
2022/10/27 02:00:25;;;;;;;4.32;2.42;;;11.30;99.90;;;;;;4982898;28;20022;-82
2022/10/27 02:03:11;;;;;;;5.38;2.22;;;11.30;99.90;;;;;;4982284;28;20031;-81
2022/10/27 02:05:52;;;;;;;4.25;2.95;;;11.20;99.90;;;;;;4966495;28;20038;-81
2022/10/27 02:08:29;;;;;;;5.47;2.20;;;11.30;99.90;;;;;;4986658;28;20031;-81
2022/10/27 02:11:04;;;;;;;7.25;3.08;;;11.20;99.90;;;;;;4985679;28;20023;-81
2022/10/27 02:13:31;;;;;;;6.00;2.13;;;11.20;99.90;;;;;;4986757;28;20055;-80
2022/10/27 02:16:05;;;;;;;4.15;2.50;;;11.20;99.90;;;;;;4984066;28;20366;-82
2022/10/27 02:18:41;;;;;;;3.90;2.08;;;11.20;99.90;;;;;;4983770;28;20033;-82
2022/10/27 02:21:10;;;;;;;3.97;2.33;;;11.10;99.90;;;;;;4974222;28;20023;-82
2022/10/27 02:23:36;;;;;;;5.50;2.10;;;11.10;99.90;;;;;;4982588;28;20058;-81
2022/10/27 02:26:25;;;;;;;5.82;2.13;;;11.00;99.90;;;;;;4981699;28;20110;-81
2022/10/27 02:29:02;;;;;;;4.10;2.20;;;11.00;99.90;;;;;;4968103;28;20038;-82
2022/10/27 02:31:35;;;;;;;5.65;2.40;;;11.00;99.90;;;;;;4982380;28;20023;-82
2022/10/27 02:34:02;;;;;;;5.38;2.50;;;11.00;99.90;;;;;;4965834;28;20392;-82
2022/10/27 02:36:28;;;;;;;4.68;2.45;;;11.00;99.90;;;;;;4982814;28;20243;-81
2022/10/27 02:38:54;;;;;;;4.63;2.40;;;10.90;99.90;;;;;;4983094;28;20041;-81
2022/10/27 02:41:20;;;;;;;4.72;2.10;;;10.90;99.90;;;;;;4963956;28;20031;-82
2022/10/27 02:43:45;;;;;;;6.28;2.40;;;10.90;99.90;;;;;;4969301;28;20042;-82
2022/10/27 02:46:11;;;;;;;4.93;2.17;;;10.90;99.90;;;;;;4989668;28;20540;-81
2022/10/27 02:48:37;;;;;;;4.50;2.35;;;10.90;99.90;;;;;;4980663;28;20042;-81
2022/10/27 02:51:02;;;;;;;3.00;1.77;;;10.90;99.90;;;;;;4963668;28;20475;-82
2022/10/27 02:53:28;;;;;;;2.58;2.15;;;10.90;99.90;;;;;;4982131;28;20026;-82
2022/10/27 02:55:53;;;;;;;3.78;1.63;;;10.90;99.90;;;;;;4964395;28;20027;-80
2022/10/27 02:58:19;;;;;;;4.13;1.80;;;10.90;99.90;;;;;;4981364;28;20031;-81
2022/10/27 03:00:45;;;;;;;4.22;1.77;;;10.80;99.90;;;;;;4960487;29;20027;-81
2022/10/27 03:03:10;;;;;;;2.13;1.92;;;10.80;99.90;;;;;;4972033;28;20023;-82
2022/10/27 03:05:36;;;;;;;6.25;2.70;;;10.80;99.90;;;;;;4986193;28;20010;-81
2022/10/27 03:08:02;;;;;;;3.42;1.80;;;10.80;99.90;;;;;;4981938;28;20101;-82
2022/10/27 03:10:28;;;;;;;5.47;1.90;;;10.80;99.90;;;;;;4980100;28;20030;-83
2022/10/27 03:12:53;;;;;;;3.47;2.00;;;10.80;99.90;;;;;;4980731;28;20433;-81
2022/10/27 03:15:19;;;;;;;2.67;1.95;;;10.80;99.90;;;;;;4981868;28;20038;-81
2022/10/27 03:17:46;;;;;;;2.72;2.30;;;10.80;99.90;;;;;;4962174;28;20037;-81
2022/10/27 03:20:14;;;;;;;4.18;2.33;;;10.80;99.90;;;;;;4964137;28;20350;-83
2022/10/27 03:22:40;;;;;;;4.15;2.60;;;10.80;99.90;;;;;;4960001;28;20085;-81
2022/10/27 03:25:07;;;;;;;4.22;2.25;;;10.80;99.90;;;;;;4980831;28;20484;-82
2022/10/27 03:27:32;;;;;;;6.68;2.67;;;10.70;99.90;;;;;;4964643;28;20070;-83
2022/10/27 03:29:58;;;;;;;5.00;2.25;;;10.80;99.90;;;;;;4981551;28;20023;-80
2022/10/27 03:32:24;;;;;;;5.10;2.67;;;10.70;99.90;;;;;;4980449;28;20035;-82
2022/10/27 03:34:49;;;;;;;3.58;2.03;;;10.70;99.90;;;;;;4975479;28;20027;-81
2022/10/27 03:37:15;;;;;;;2.72;1.65;;;10.70;99.90;;;;;;4971517;28;20045;-82
2022/10/27 03:39:40;;;;;;;3.25;1.85;;;10.70;99.90;;;;;;4980523;28;20035;-83
2022/10/27 03:42:06;;;;;;;3.28;2.25;;;10.60;99.90;;;;;;4980980;28;20030;-83
2022/10/27 03:44:32;;;;;;;1.90;1.70;;;10.60;99.90;;;;;;4979763;28;21103;-82
2022/10/27 03:46:57;;;;;;;2.60;1.58;;;10.60;99.90;;;;;;4961727;28;20106;-81
2022/10/27 03:49:23;;;;;;;2.75;2.03;;;10.60;99.90;;;;;;4981324;28;20071;-83
2022/10/27 03:51:49;;;;;;;2.80;1.60;;;10.60;99.90;;;;;;4981307;28;20027;-79
2022/10/27 03:54:14;;;;;;;1.70;1.52;;;10.60;99.90;;;;;;4978665;28;20038;-80
2022/10/27 03:56:40;;;;;;;2.00;1.77;;;10.60;99.90;;;;;;4981469;28;20023;-81
2022/10/27 03:59:05;;;;;;;2.72;2.30;;;10.60;99.90;;;;;;4964505;28;20038;-83
2022/10/27 04:01:33;;;;;;;2.60;1.90;;;10.60;99.90;;;;;;4986737;28;20019;-81
2022/10/27 04:03:59;;;;;;;4.50;2.45;;;10.60;99.90;;;;;;4985271;28;20054;-82
2022/10/27 04:06:25;;;;;;;3.40;2.50;;;10.50;99.90;;;;;;4964656;28;20031;-80
2022/10/27 04:08:50;;;;;;;3.25;1.98;;;10.50;99.90;;;;;;4983491;28;20117;-82
2022/10/27 04:11:16;;;;;;;3.30;1.75;;;10.50;99.90;;;;;;4982485;28;20098;-84
2022/10/27 04:13:42;;;;;;;2.80;2.13;;;10.50;99.90;;;;;;4981657;28;20110;-82
2022/10/27 04:16:08;;;;;;;4.05;1.90;;;10.50;99.90;;;;;;4987927;28;20030;-80
2022/10/27 04:18:34;;;;;;;1.90;1.60;;;10.50;99.90;;;;;;4973787;28;20034;-82
2022/10/27 04:21:04;;;;;;;2.83;1.23;;;10.40;99.90;;;;;;4988990;28;20428;-83
2022/10/27 04:23:33;;;;;;;2.42;1.60;;;10.50;99.90;;;;;;4994573;28;20022;-81
2022/10/27 04:25:59;;;;;;;2.92;1.88;;;10.40;99.90;;;;;;4982877;28;20026;-81
2022/10/27 04:28:24;;;;;;;3.97;1.85;;;10.40;99.90;;;;;;4990108;28;20533;-82
2022/10/27 04:30:50;;;;;;;2.42;1.60;;;10.40;99.90;;;;;;4993685;28;20043;-82
2022/10/27 04:33:16;;;;;;;4.75;1.80;;;10.40;99.90;;;;;;4976131;28;20023;-82
2022/10/27 04:35:42;;;;;;;4.07;1.95;;;10.40;99.90;;;;;;4995123;28;20037;-81
2022/10/27 04:38:08;;;;;;;4.53;2.35;;;10.40;99.90;;;;;;4988143;28;20065;-82
2022/10/27 04:40:34;;;;;;;3.17;2.38;;;10.40;99.90;;;;;;4980800;28;20034;-81
2022/10/27 04:43:00;;;;;;;2.88;2.15;;;10.40;99.90;;;;;;4999885;28;20566;-80
2022/10/27 04:45:25;;;;;;;5.45;1.98;;;10.40;99.90;;;;;;4981357;28;20095;-79
2022/10/27 04:47:51;;;;;;;2.25;1.50;;;10.30;99.90;;;;;;4997844;28;20023;-80
2022/10/27 04:50:17;;;;;;;4.25;2.05;;;10.40;99.90;;;;;;4998350;28;20014;-81
2022/10/27 04:52:57;;;;;;;2.88;1.80;;;10.30;99.90;;;;;;4996676;28;20099;-80
2022/10/27 04:55:24;;;;;;;2.67;1.80;;;10.30;99.90;;;;;;4980156;28;20614;-81
2022/10/27 04:57:50;;;;;;;3.22;1.67;;;10.30;99.90;;;;;;4996259;28;20495;-82
2022/10/27 05:00:17;;;;;;;2.22;2.00;;;10.30;99.90;;;;;;4982189;28;20014;-81
2022/10/27 05:02:43;;;;;;;3.42;2.50;;;10.30;99.90;;;;;;5003960;28;20046;-81
2022/10/27 05:05:09;;;;;;;4.53;2.13;;;10.30;99.90;;;;;;4997398;28;20027;-81
2022/10/27 05:07:34;;;;;;;2.67;2.08;;;10.30;99.90;;;;;;4997248;28;20086;-81
2022/10/27 05:10:00;;;;;;;4.63;1.67;;;10.30;99.90;;;;;;4991361;28;20022;-81
2022/10/27 05:12:26;;;;;;;6.40;2.45;;;10.30;99.90;;;;;;4993617;28;20496;-81
2022/10/27 05:14:51;;;;;;;3.97;2.00;;;10.30;99.90;;;;;;4999315;28;20019;-82
2022/10/27 05:17:17;;;;;;;3.03;2.13;;;10.30;99.90;;;;;;4999243;28;20042;-81
2022/10/27 05:19:43;;;;;;;2.53;2.20;;;10.30;99.90;;;;;;4982286;28;20034;-83
2022/10/27 05:22:14;;;;;;;3.03;2.00;;;10.20;99.90;;;;;;4997277;28;20027;-83
2022/10/27 05:24:40;;;;;;;5.13;2.10;;;10.20;99.90;;;;;;4970667;28;20043;-82
2022/10/27 05:27:06;;;;;;;3.53;2.30;;;10.20;99.90;;;;;;4989119;28;20019;-83
2022/10/27 05:29:32;;;;;;;3.78;2.00;;;10.20;99.90;;;;;;4996948;28;20495;-83
2022/10/27 05:31:58;;;;;;;3.05;2.30;;;10.20;99.90;;;;;;4971655;28;20031;-82
2022/10/27 05:34:23;;;;;;;4.60;2.42;;;10.20;99.90;;;;;;4970701;28;20093;-83
2022/10/27 05:36:50;;;;;;;4.65;2.15;;;10.10;99.90;;;;;;4988724;28;20019;-84
2022/10/27 05:39:15;;;;;;;5.85;2.35;;;10.10;99.90;;;;;;4972434;28;20477;-82
2022/10/27 05:41:41;;;;;;;5.82;3.15;;;10.10;99.90;;;;;;5006470;28;20030;-83
2022/10/27 05:44:07;;;;;;;4.93;2.20;;;10.10;99.90;;;;;;5008801;28;20034;-82
2022/10/27 05:46:32;;;;;;;4.53;2.53;;;10.10;99.90;;;;;;4989990;28;20030;-81
2022/10/27 05:48:58;;;;;;;3.97;2.42;;;10.10;99.90;;;;;;4990192;28;20042;-82
2022/10/27 05:51:24;;;;;;;3.75;2.67;;;10.10;99.90;;;;;;5007228;28;20057;-82
2022/10/27 05:53:50;;;;;;;3.70;2.08;;;10.10;99.90;;;;;;5006992;28;20030;-81
2022/10/27 05:56:16;;;;;;;3.35;2.10;;;10.10;99.90;;;;;;5007397;28;20026;-82
2022/10/27 05:58:42;;;;;;;7.18;2.10;;;10.10;99.90;;;;;;4986753;28;20026;-82
2022/10/27 06:01:08;;;;;;;5.50;2.50;;;10.10;99.90;;;;;;4967465;28;20368;-82
2022/10/27 06:03:33;;;;;;;7.38;2.90;;;10.10;99.90;;;;;;4986802;28;20038;-83
2022/10/27 06:06:05;;;;;;;3.70;2.50;;;10.10;99.90;;;;;;4984963;28;20019;-82
2022/10/27 06:08:30;;;;;;;3.10;2.53;;;10.10;99.90;;;;;;4968448;28;20452;-81
2022/10/27 06:10:56;;;;;;;2.55;2.35;;;10.20;99.90;;;;;;4986270;28;20037;-81
2022/10/27 06:13:22;;;;;;;3.45;2.45;;;10.20;99.90;;;;;;4969827;28;20054;-82
2022/10/27 06:15:48;;;;;;;4.65;2.60;;;10.20;99.90;;;;;;4970098;28;20037;-81
2022/10/27 06:18:14;;;;;;;2.47;1.98;;;10.20;99.90;;;;;;4992706;28;20037;-82
2022/10/27 06:20:40;;;;;;;4.43;2.05;;;10.20;99.90;;;;;;5005190;28;20029;-84
2022/10/27 06:23:06;;;;;;;2.78;2.20;;;10.30;99.90;;;;;;4981952;28;20027;-83
2022/10/27 06:25:32;;;;;;;4.32;2.50;;;10.30;99.90;;;;;;4984189;28;20039;-83
2022/10/27 06:27:57;;;;;;;3.92;2.08;;;10.30;99.90;;;;;;4983782;28;20031;-81
2022/10/27 06:30:25;;;;;;;5.20;2.47;;;10.30;99.90;;;;;;4983520;28;20206;-81
2022/10/27 06:32:51;;;;;;;3.33;2.10;;;10.40;99.90;;;;;;4980475;28;20038;-81
2022/10/27 06:35:18;;;;;;;4.68;2.38;;;10.40;99.90;;;;;;4964655;28;20038;-83
2022/10/27 06:37:45;;;;;;;4.63;2.03;;;10.40;99.90;;;;;;4984616;28;20116;-82
2022/10/27 06:40:13;;;;;;;4.57;2.25;;;10.50;99.90;;;;;;4984568;28;20026;-83
2022/10/27 06:42:39;;;;;;;4.50;2.33;;;10.50;99.90;;;;;;4984271;28;20050;-84
2022/10/27 06:45:06;;;;;;;5.75;2.60;;;10.60;99.90;;;;;;4968139;28;20425;-81
2022/10/27 06:47:32;;;;;;;4.95;2.42;;;10.60;99.90;;;;;;4986456;28;20056;-81
2022/10/27 06:49:58;;;;;;;3.40;2.17;;;10.60;99.90;;;;;;5004253;28;20019;-84
2022/10/27 06:52:25;;;;;;;6.70;2.50;;;10.70;99.90;;;;;;5003635;28;20341;-81
2022/10/27 06:54:51;;;;;;;4.00;2.20;;;10.70;99.90;;;;;;4967132;28;20507;-82
2022/10/27 06:57:16;;;;;;;3.60;2.10;;;10.80;99.90;;;;;;4986114;28;20035;-82
2022/10/27 06:59:42;;;;;;;4.55;2.00;;;10.90;99.90;;;;;;4966596;28;20074;-81
2022/10/27 07:02:12;;;;;;;3.72;2.10;;;11.00;99.90;;;;;;4984993;28;20054;-83
2022/10/27 07:04:38;;;;;;;3.03;2.17;;;11.00;99.90;;;;;;4984316;28;20457;-83
2022/10/27 07:07:03;;;;;;;4.55;2.63;;;11.10;99.90;;;;;;4967583;28;20038;-82
2022/10/27 07:09:29;;;;;;;6.65;3.03;;;11.10;99.90;;;;;;4968071;28;20097;-82
2022/10/27 07:11:54;;;;;;;6.88;2.80;;;11.20;99.90;;;;;;4986033;28;20040;-81
2022/10/27 07:14:20;;;;;;;9.40;2.70;;;11.30;99.90;;;;;;4986895;28;20051;-81
2022/10/27 07:16:46;;;;;;;8.13;2.50;;;11.40;99.90;;;;;;4998709;28;20030;-82
2022/10/27 07:19:11;;;;;;;4.43;2.45;;;11.50;99.90;;;;;;4985337;28;20515;-82
2022/10/27 07:21:37;;;;;;;4.53;2.40;;;11.60;99.90;;;;;;4967130;28;20027;-83
2022/10/27 07:24:06;;;;;;;5.80;2.70;;;11.70;99.90;;;;;;4985057;28;20047;-82
2022/10/27 07:26:32;;;;;;;6.85;2.55;;;12.00;99.90;;;;;;4983486;28;20535;-83
2022/10/27 07:28:58;;;;;;;5.03;2.80;;;12.60;99.90;;;;;;4983770;28;20023;-82
2022/10/27 07:31:23;;;;;;;10.02;3.75;;;12.80;99.90;;;;;;4983824;28;20051;-83
2022/10/27 07:33:49;;;;;;;12.10;3.30;;;12.80;99.90;;;;;;4966118;28;20035;-82
2022/10/27 07:36:18;;;;;;;3.83;2.72;;;12.70;99.90;;;;;;4989619;28;20053;-82
2022/10/27 07:38:43;;;;;;;7.13;2.60;;;12.70;99.90;;;;;;5011834;28;20061;-82
2022/10/27 07:41:09;;;;;;;5.55;2.78;;;12.70;99.90;;;;;;5010083;28;20037;-81
2022/10/27 07:43:35;;;;;;;7.15;2.42;;;12.80;99.90;;;;;;5012070;28;20356;-83
2022/10/27 07:46:05;;;;;;;5.20;2.40;;;12.90;99.90;;;;;;4992643;28;20094;-82
2022/10/27 07:48:30;;;;;;;4.20;2.08;;;13.00;99.90;;;;;;5010766;28;20042;-83
2022/10/27 07:51:06;;;;;;;6.63;2.85;;;13.10;99.90;;;;;;5009705;28;20110;-83
2022/10/27 07:53:34;;;;;;;7.28;2.72;;;13.20;99.90;;;;;;5005463;28;20030;-83
2022/10/27 07:56:01;;;;;;;5.50;2.40;;;13.30;99.90;;;;;;4974618;28;20034;-81
2022/10/27 07:58:27;;;;;;;5.30;1.75;;;13.40;99.90;;;;;;4973440;28;20090;-83
2022/10/27 08:00:53;;;;;;;5.40;2.17;;;13.60;99.90;;;;;;4991768;28;20023;-81
2022/10/27 08:03:24;;;;;;;5.95;2.83;;;13.70;99.90;;;;;;4990903;28;20023;-82
2022/10/27 08:05:51;;;;;;;5.35;2.10;;;13.90;99.90;;;;;;4992353;28;20027;-82
2022/10/27 08:08:17;;;;;;;1.95;1.55;;;14.00;99.90;;;;;;4974054;28;20031;-82
2022/10/27 08:10:44;;;;;;;1.83;1.58;;;14.20;99.80;;;;;;4990243;28;20051;-83
2022/10/27 08:13:11;;;;;;;3.05;1.83;;;14.30;99.30;;;;;;4993039;28;20035;-83
2022/10/27 08:15:38;;;;;;;2.97;1.63;;;14.40;99.00;;;;;;4989530;28;20069;-83
2022/10/27 08:18:05;;;;;;;4.15;1.63;;;14.60;98.90;;;;;;4990342;28;20539;-82
2022/10/27 08:20:33;;;;;;;2.25;1.10;;;14.80;98.20;;;;;;4992348;28;20038;-83
2022/10/27 08:23:01;;;;;;;8.63;2.15;;;15.00;97.70;;;;;;4990901;28;20019;-82
2022/10/27 08:25:27;;;;;;;8.93;2.25;;;15.10;97.00;;;;;;4994501;28;20038;-81
2022/10/27 08:27:53;;;;;;;3.33;2.03;;;15.30;96.30;;;;;;5000435;28;20046;-83
2022/10/27 08:30:20;;;;;;;3.25;1.90;;;15.50;95.90;;;;;;4995822;28;20042;-84
2022/10/27 08:32:49;;;;;;;3.20;1.52;;;15.60;95.50;;;;;;4991187;28;20041;-83
2022/10/27 08:35:16;;;;;;;3.70;1.88;;;15.80;94.90;;;;;;4989346;28;20033;-81
2022/10/27 08:37:41;;;;;;;4.30;2.10;;;16.00;94.20;;;;;;4989642;28;20038;-83
2022/10/27 08:40:10;;;;;;;7.00;3.13;;;16.10;93.80;;;;;;4988960;28;20034;-82
2022/10/27 08:42:53;;;;;;;4.60;2.35;;;16.20;93.20;;;;;;4989449;28;20435;-82
2022/10/27 08:45:42;;;;;;;5.63;2.15;;;16.30;92.90;;;;;;4989747;28;20023;-82
2022/10/27 08:48:10;;;;;;;4.43;1.95;;;16.50;92.30;;;;;;4987968;28;20042;-82
2022/10/27 08:50:41;;;;;;;4.03;2.00;;;16.80;91.60;;;;;;4987692;28;20027;-85
2022/10/27 08:53:14;;;;;;;3.25;1.67;;;16.90;90.80;;;;;;5005342;28;20061;-83
2022/10/27 08:55:54;;;;;;;2.35;1.65;;;17.00;90.00;;;;;;4989877;28;20026;-84
2022/10/27 08:58:41;;;;;;;5.15;2.30;;;17.20;89.70;;;;;;5004073;28;20467;-82
2022/10/27 09:01:23;;;;;;;4.25;2.08;;;17.30;88.70;;;;;;4987655;28;20165;-82
2022/10/27 09:04:13;;;;;;;8.67;2.63;;;17.40;87.90;;;;;;4969506;28;20035;-84
2022/10/27 09:07:03;;;;;;;7.38;2.58;;;17.60;87.20;;;;;;4968946;28;20271;-84
2022/10/27 09:09:56;;;;;;;6.47;2.58;;;17.70;86.60;;;;;;4969303;28;20094;-82
2022/10/27 09:12:32;;;;;;;;;;;17.90;85.70;;;;;;5009273;28;20027;-83
2022/10/27 09:15:15;;;;;;;5.05;2.10;;;18.00;85.10;;;;;;5006390;28;19977;-82
2022/10/27 09:17:52;;;;;;;3.50;2.17;;;18.10;84.50;;;;;;5005641;28;20090;-82
2022/10/27 09:20:31;;;;;;;3.88;2.00;;;18.20;84.10;;;;;;5003618;28;20086;-82
2022/10/27 09:23:00;;;;;;;5.55;1.88;;;18.60;83.20;;;;;;5004336;28;20034;-82
2022/10/27 09:25:27;;;;;;;3.90;1.77;;;19.30;80.50;;;;;;4989045;28;20034;-82
2022/10/27 09:27:55;;;;;;;3.83;1.75;;;19.90;78.10;;;;;;5005301;28;20150;-84
2022/10/27 09:30:21;;;;;;;3.35;1.80;;;20.40;76.10;;;;;;4993775;28;20027;-82
2022/10/27 09:32:53;;;;;;;7.75;1.63;;;20.80;74.30;;;;;;4986740;28;20086;-81
2022/10/27 09:35:27;;;;;;;5.75;1.70;;;21.00;72.30;;;;;;4971987;28;20027;-83
2022/10/27 09:37:55;;;;;;;5.40;1.98;;;20.90;71.40;;;;;;4987450;28;20027;-83
2022/10/27 09:40:22;;;;;;;8.75;2.17;;;20.60;71.20;;;;;;4988290;28;20111;-82
2022/10/27 09:42:55;;;;;;;3.75;1.88;;;20.00;72.50;;;;;;4986581;28;20019;-83
2022/10/27 09:45:27;;;;;;;2.83;1.63;;;19.80;74.20;;;;;;4986687;28;20023;-82
2022/10/27 09:47:56;;;;;;;4.40;2.10;;;19.70;74.50;;;;;;4968789;28;20046;-82
2022/10/27 09:50:27;;;;;;;5.28;1.60;;;19.70;74.60;;;;;;4987139;28;20035;-83
2022/10/27 09:52:52;;;;;;;5.38;1.80;;;19.60;74.50;;;;;;4990665;28;20558;-83
2022/10/27 09:55:18;;;;;;;5.05;1.60;;;19.60;73.90;;;;;;4989714;28;20034;-83
2022/10/27 09:57:47;;;;;;;4.93;1.63;;;19.70;73.10;;;;;;4988394;28;20026;-83
2022/10/27 10:00:16;;;;;;;3.55;1.45;;;19.60;72.30;;;;;;4989366;28;20445;-82
2022/10/27 10:03:09;;;;;;;3.92;2.15;;;19.70;72.10;;;;;;5006207;28;20030;-84
2022/10/27 10:05:36;;;;;;;4.43;1.80;;;19.70;71.40;;;;;;4971428;28;20034;-83
2022/10/27 10:08:23;;;;;;;8.07;1.92;;;19.80;71.30;;;;;;4971236;28;20026;-83
2022/10/27 10:11:20;;;;;;;4.15;2.00;;;19.70;70.10;;;;;;4968593;28;20043;-81
2022/10/27 10:14:02;;;;;;;5.20;1.67;;;19.70;70.70;;;;;;4966500;28;20035;-82
2022/10/27 10:16:29;;;;;;;2.85;1.33;;;19.80;70.70;;;;;;4985209;28;20025;-81
2022/10/27 10:19:25;;;;;;;5.30;1.60;;;19.90;69.90;;;;;;4964820;28;20042;-82
2022/10/27 10:22:00;;;;;;;3.70;1.65;;;20.10;69.60;;;;;;4983050;28;20392;-83
2022/10/27 10:24:28;;;;;;;3.22;1.70;;;20.10;69.60;;;;;;4968638;28;20031;-83
2022/10/27 10:26:58;;;;;;;2.25;1.42;;;20.20;69.70;;;;;;4986701;28;20026;-83
2022/10/27 10:29:26;;;;;;;4.35;1.92;;;20.30;70.40;;;;;;4992469;28;20022;-83
2022/10/27 10:32:11;;;;;;;2.58;1.40;;;20.20;68.90;;;;;;5005584;28;20030;-83
2022/10/27 10:34:38;;;;;;;3.25;1.45;;;20.10;69.60;;;;;;4988487;28;20051;-83
2022/10/27 10:37:41;;;;;;;3.33;1.40;;;20.10;69.50;;;;;;4987715;28;20030;-81
2022/10/27 10:40:12;;;;;;;2.35;1.30;;;20.30;69.20;;;;;;4985534;28;20030;-82
2022/10/27 10:42:39;;;;;;;2.13;1.57;;;20.30;69.10;;;;;;4986592;28;20057;-83
2022/10/27 10:45:32;;;;;;;4.18;1.25;;;20.40;68.90;;;;;;4991913;28;20385;-82
2022/10/27 10:48:03;;;;;;;2.85;1.45;;;20.50;68.60;;;;;;4967921;28;20110;-79
2022/10/27 10:50:30;;;;;;;6.18;1.90;;;20.50;68.50;;;;;;4976865;29;20031;-81
2022/10/27 10:52:59;;;;;;;3.05;1.77;;;20.50;68.00;;;;;;4975298;29;20543;-82
2022/10/27 10:55:29;;;;;;;2.00;1.60;;;20.40;68.10;;;;;;4971948;29;20034;-82
2022/10/27 10:57:56;;;;;;;4.15;1.50;;;20.30;68.30;;;;;;4955592;29;20397;-82
2022/10/27 11:00:23;;;;;;;5.60;1.95;;;20.30;67.70;;;;;;4959043;29;20031;-81
2022/10/27 11:03:12;;;;;;;6.85;1.60;;;20.30;67.50;;;;;;4979234;28;20023;-80
2022/10/27 11:05:39;;;;;;;4.78;2.10;;;20.30;67.60;;;;;;5000222;28;20027;-80
2022/10/27 11:10:40;;;;;;;3.90;1.52;;;20.50;67.80;;;;;;5014841;23;20092;-80
2022/10/27 11:13:14;;;;;;;6.47;1.50;;;20.50;67.20;;;;;;4979296;28;20360;-79
2022/10/27 11:15:58;;;;;;;3.80;1.50;;;20.60;66.60;;;;;;4980056;28;20030;-79
2022/10/27 11:18:49;;;;;;;6.03;2.00;;;20.70;66.40;;;;;;4979344;28;20027;-79
2022/10/27 11:21:34;;;;;;;3.95;1.65;;;20.80;65.90;;;;;;4984446;28;20058;-81
2022/10/27 11:24:01;;;;;;;2.67;1.60;;;20.80;66.20;;;;;;4995267;28;20062;-79
2022/10/27 11:26:39;;;;;;;3.40;1.80;;;20.80;65.70;;;;;;5000725;28;20026;-79
2022/10/27 11:29:17;;;;;;;5.97;1.60;;;20.80;65.60;;;;;;4999687;28;20068;-79
2022/10/27 11:32:12;;;;;;;5.72;1.38;;;20.90;65.30;;;;;;5004469;28;20113;-80
2022/10/27 11:34:56;;;;;;;2.47;1.35;;;20.90;64.80;;;;;;4992141;28;20424;-80
2022/10/27 11:37:50;;;;;;;2.78;1.80;;;20.90;64.80;;;;;;4978859;28;20022;-80
2022/10/27 11:40:22;;;;;;;3.00;1.95;;;21.00;64.00;;;;;;4978196;28;20031;-80
2022/10/27 11:43:08;;;;;;;2.00;1.05;;;21.00;64.00;;;;;;4967756;28;20376;-81
2022/10/27 11:46:16;;;;;;;1.85;1.20;;;21.10;64.40;;;;;;4996415;28;20028;-80
2022/10/27 11:48:51;;;;;;;5.40;2.13;;;20.90;64.20;;;;;;4990423;28;20039;-79
2022/10/27 11:51:27;;;;;;;2.53;1.40;;;20.80;65.00;;;;;;4996087;28;20023;-79
2022/10/27 11:53:53;;;;;;;6.18;1.63;;;20.80;65.50;;;;;;4996065;28;20423;-80
2022/10/27 11:56:48;;;;;;;5.28;1.42;;;20.70;64.90;;;;;;4995733;28;20099;-80
2022/10/27 11:59:37;;;;;;;5.78;1.70;;;20.70;65.30;;;;;;4996056;28;20103;-81
2022/10/27 12:02:15;;;;;;;7.32;1.70;;;20.80;65.60;;;;;;4993781;28;20164;-79
2022/10/27 12:05:16;;;;;;;5.05;1.58;;;21.00;65.80;;;;;;4983350;28;20105;-79
2022/10/27 12:08:02;;;;;;;6.70;1.77;;;21.40;64.80;;;;;;4976461;28;20023;-79
2022/10/27 12:10:41;;;;;;;6.97;2.38;;;21.90;62.80;;;;;;4976610;28;20062;-80
2022/10/27 12:13:42;;;;;;;3.95;1.45;;;22.10;61.80;;;;;;4976585;28;20054;-80
2022/10/27 12:16:23;;;;;;;0.95;0.93;;;22.30;61.70;;;;;;4976025;28;20531;-80
2022/10/27 12:19:08;;;;;;;1.10;0.95;;;22.50;62.10;;;;;;4976684;28;20019;-79
2022/10/27 12:22:11;;;;;;;4.28;1.83;;;22.70;60.90;;;;;;4992198;28;20038;-79
2022/10/27 12:24:42;;;;;;;3.22;1.63;;;22.50;60.50;;;;;;5000212;28;20030;-78
2022/10/27 12:27:21;;;;;;;2.67;1.20;;;22.20;61.30;;;;;;4998893;28;20027;-78
2022/10/27 12:29:51;;;;;;;4.75;1.30;;;22.10;62.10;;;;;;4999066;28;20085;-80
2022/10/27 12:32:24;;;;;;;4.32;1.67;;;22.00;61.90;;;;;;4999803;28;20024;-79
2022/10/27 12:35:05;;;;;;;4.50;1.45;;;21.90;62.50;;;;;;4998430;28;20089;-80
2022/10/27 12:37:49;;;;;;;2.55;1.50;;;21.90;62.60;;;;;;4999222;28;20030;-80
2022/10/27 12:40:48;;;;;;;1.98;1.10;;;22.00;62.40;;;;;;4989125;28;20030;-82
2022/10/27 12:43:21;;;;;;;8.48;2.17;;;22.10;62.10;;;;;;4980901;28;20098;-79
2022/10/27 12:46:07;;;;;;;3.25;1.42;;;22.10;62.00;;;;;;4981474;28;20026;-79
2022/10/27 12:48:48;;;;;;;4.82;1.38;;;22.00;62.50;;;;;;4980414;28;20027;-79
2022/10/27 12:51:48;;;;;;;1.73;1.40;;;22.10;62.80;;;;;;4969259;28;20026;-82
2022/10/27 12:54:30;;;;;;;2.28;1.70;;;22.20;62.60;;;;;;4988326;28;20031;-83
2022/10/27 12:57:26;;;;;;;3.60;1.58;;;22.40;62.20;;;;;;4987194;28;20027;-81
2022/10/27 13:00:22;;;;;;;4.30;1.38;;;22.40;61.80;;;;;;5002166;28;20030;-81
2022/10/27 13:03:36;;;;;;;5.57;1.73;;;22.40;61.90;;;;;;5006238;28;20050;-79
2022/10/27 13:06:05;;;;;;;3.03;1.60;;;22.30;61.90;;;;;;5006333;28;20117;-81
2022/10/27 13:09:09;;;;;;;3.15;1.38;;;22.30;62.00;;;;;;4998474;28;20211;-81
2022/10/27 13:11:44;;;;;;;4.43;1.33;;;22.30;62.60;;;;;;4980880;28;20065;-80
2022/10/27 13:14:15;;;;;;;5.35;1.65;;;22.40;62.60;;;;;;4998322;28;20266;-81